createdAt,value
2019-03-28T00:01:41.651Z,7.15
2019-03-28T00:06:46.010Z,7.90
2019-03-28T00:11:50.405Z,7.17
2019-03-28T00:16:56.642Z,7.05
2019-03-28T00:22:00.999Z,7.22
2019-03-28T00:27:05.391Z,7.62
2019-03-28T00:32:10.160Z,7.17
2019-03-28T00:42:18.989Z,7.10
2019-03-28T00:52:28.435Z,7.90
2019-03-28T00:57:33.244Z,8.13
2019-03-28T01:02:39.506Z,7.97
2019-03-28T01:07:49.324Z,8.53
2019-03-28T01:12:54.124Z,8.83
2019-03-28T01:17:59.936Z,8.78
2019-03-28T01:23:04.397Z,8.33
2019-03-28T01:28:08.694Z,8.23
2019-03-28T01:33:13.164Z,7.58
2019-03-28T01:38:17.460Z,8.33
2019-03-28T01:43:21.886Z,8.23
2019-03-28T01:48:27.324Z,9.03
2019-03-28T01:53:55.086Z,9.38
2019-03-28T01:58:59.495Z,9.00
2019-03-28T02:04:03.840Z,9.45
2019-03-28T02:09:09.623Z,8.70
2019-03-28T02:14:14.023Z,9.88
2019-03-28T02:19:19.258Z,10.32
2019-03-28T02:24:26.196Z,9.85
2019-03-28T02:29:30.347Z,9.75
2019-03-28T02:34:36.048Z,9.58
2019-03-28T02:39:43.377Z,9.83
2019-03-28T02:44:48.591Z,10.82
2019-03-28T02:49:54.923Z,10.72
2019-03-28T02:54:59.581Z,11.35
2019-03-28T03:05:07.715Z,12.50
2019-03-28T03:10:19.865Z,10.18
2019-03-28T03:15:25.430Z,12.10
2019-03-28T03:20:31.609Z,10.43
2019-03-28T03:25:36.116Z,11.57
2019-03-28T03:30:40.601Z,11.18
2019-03-28T03:35:46.759Z,11.63
2019-03-28T03:40:51.427Z,12.20
2019-03-28T03:51:05.706Z,11.55
2019-03-28T03:56:10.324Z,12.73
2019-03-28T04:01:20.025Z,12.75
2019-03-28T04:06:24.432Z,13.13
2019-03-28T04:11:29.137Z,11.20
2019-03-28T04:21:39.660Z,13.70
2019-03-28T04:26:44.848Z,13.00
2019-03-28T04:31:50.943Z,12.60
2019-03-28T04:36:56.143Z,13.25
2019-03-28T04:42:00.559Z,14.30
2019-03-28T04:47:07.879Z,14.53
2019-03-28T04:52:13.536Z,14.63
2019-03-28T04:57:17.857Z,14.60
2019-03-28T05:02:22.491Z,14.35
2019-03-28T05:12:30.494Z,13.50
2019-03-28T05:17:35.520Z,14.58
2019-03-28T05:22:39.919Z,14.55
2019-03-28T05:27:45.307Z,13.75
2019-03-28T05:32:50.339Z,14.95
2019-03-28T05:37:54.616Z,14.73
2019-03-28T05:42:58.927Z,14.07
2019-03-28T05:48:06.034Z,13.03
2019-03-28T05:53:10.472Z,14.45
2019-03-28T05:58:15.142Z,14.95
2019-03-28T06:08:23.021Z,13.90
2019-03-28T06:18:30.950Z,12.95
2019-03-28T06:23:35.923Z,14.07
2019-03-28T06:28:42.238Z,14.83
2019-03-28T06:33:46.552Z,13.38
2019-03-28T06:38:51.247Z,13.80
2019-03-28T06:48:59.084Z,12.03
2019-03-28T06:54:04.420Z,12.68
2019-03-28T06:59:08.867Z,12.13
2019-03-28T07:04:13.441Z,13.25
2019-03-28T07:09:18.380Z,13.05
2019-03-28T07:14:25.630Z,11.97
2019-03-28T07:19:29.949Z,12.85
2019-03-28T07:24:34.715Z,12.15
2019-03-28T07:29:50.128Z,11.80
2019-03-28T07:34:45.673Z,11.50
2019-03-28T07:39:50.100Z,10.05
2019-03-28T07:44:55.285Z,9.25
2019-03-28T07:49:59.718Z,10.65
2019-03-28T07:55:05.073Z,10.25
2019-03-28T08:00:10.197Z,12.30
2019-03-28T08:05:15.207Z,11.73
2019-03-28T08:10:19.806Z,9.98
2019-03-28T08:20:29.102Z,7.90
2019-03-28T08:25:33.774Z,7.28
2019-03-28T08:30:39.474Z,7.28
2019-03-28T08:35:45.940Z,6.95
2019-03-28T08:40:51.584Z,8.38
2019-03-28T08:45:56.372Z,7.72
2019-03-28T08:51:01.182Z,8.08
2019-03-28T09:01:09.612Z,5.40
2019-03-28T09:06:16.997Z,5.83
2019-03-28T09:11:21.600Z,5.72
2019-03-28T09:16:26.187Z,6.08
2019-03-28T09:21:33.451Z,5.25
2019-03-28T09:26:38.155Z,3.90
2019-03-28T09:31:42.739Z,4.62
2019-03-28T09:36:48.133Z,3.90
2019-03-28T09:41:52.560Z,4.10
2019-03-28T09:46:57.501Z,3.55
2019-03-28T09:52:02.268Z,3.05
2019-03-28T10:02:09.842Z,3.52
2019-03-28T10:07:14.259Z,3.80
2019-03-28T10:12:19.114Z,4.20
2019-03-28T10:17:23.531Z,3.90
2019-03-28T10:22:27.932Z,3.58
2019-03-28T10:27:32.367Z,3.55
2019-03-28T10:32:36.795Z,3.50
2019-03-28T10:37:41.106Z,2.98
2019-03-28T10:42:47.217Z,2.55
2019-03-28T10:47:51.548Z,1.92
2019-03-28T10:52:56.199Z,2.60
2019-03-28T10:58:00.619Z,2.65
2019-03-28T11:03:05.388Z,3.22
2019-03-28T11:08:10.227Z,2.70
2019-03-28T11:18:18.233Z,3.17
2019-03-28T11:28:26.602Z,4.03
2019-03-28T11:33:31.105Z,4.87
2019-03-28T11:38:35.542Z,4.25
2019-03-28T11:43:40.299Z,4.45
2019-03-28T11:48:45.391Z,4.40
2019-03-28T11:53:49.980Z,4.30
2019-03-28T11:58:54.435Z,5.37
2019-03-28T12:03:59.644Z,5.22
2019-03-28T12:09:05.217Z,4.15
2019-03-28T12:14:10.011Z,3.70
2019-03-28T12:24:18.079Z,3.92
2019-03-28T12:29:23.792Z,3.02
2019-03-28T12:34:28.770Z,4.08
2019-03-28T12:39:33.180Z,4.00
2019-03-28T12:44:37.474Z,3.92
2019-03-28T12:49:42.058Z,3.47
2019-03-28T12:54:46.458Z,3.67
2019-03-28T12:59:53.618Z,5.28
2019-03-28T13:04:57.788Z,4.05
2019-03-28T13:10:02.319Z,3.42
2019-03-28T13:20:11.819Z,4.17
2019-03-28T13:25:16.190Z,4.08
2019-03-28T13:30:20.557Z,3.80
2019-03-28T13:35:24.850Z,3.92
2019-03-28T13:40:29.207Z,3.70
2019-03-28T13:45:33.785Z,3.30
2019-03-28T13:50:38.115Z,3.87
2019-03-28T13:55:43.094Z,3.77
2019-03-28T14:00:47.677Z,4.60
2019-03-28T14:05:52.017Z,3.75
2019-03-28T14:10:56.317Z,3.62
2019-03-28T14:16:00.878Z,3.47
2019-03-28T14:21:05.128Z,4.17
2019-03-28T14:26:09.463Z,3.98
2019-03-28T14:31:13.806Z,4.60
2019-03-28T14:36:18.177Z,4.08
2019-03-28T14:41:22.668Z,3.80
2019-03-28T14:51:30.375Z,4.60
2019-03-28T14:56:34.724Z,3.77
2019-03-28T15:01:40.044Z,4.12
2019-03-28T15:06:44.715Z,4.15
2019-03-28T15:16:54.462Z,3.70
2019-03-28T15:21:59.096Z,3.17
2019-03-28T15:27:03.524Z,4.70
2019-03-28T15:32:08.275Z,3.60
2019-03-28T15:37:12.633Z,3.35
2019-03-28T15:42:17.217Z,3.47
2019-03-28T15:47:21.898Z,3.55
2019-03-28T15:52:27.744Z,3.58
2019-03-28T15:57:32.520Z,2.92
2019-03-28T16:02:37.172Z,3.10
2019-03-28T16:07:41.544Z,3.70
2019-03-28T16:12:45.900Z,3.67
2019-03-28T16:17:51.727Z,3.33
2019-03-28T16:22:56.042Z,4.22
2019-03-28T16:28:00.845Z,3.67
2019-03-28T16:38:08.693Z,3.77
2019-03-28T16:43:14.854Z,3.52
2019-03-28T16:48:19.595Z,4.30
2019-03-28T16:58:27.446Z,3.95
2019-03-28T17:03:31.703Z,3.55
2019-03-28T17:08:36.040Z,3.40
2019-03-28T17:13:40.409Z,3.40
2019-03-28T17:18:45.814Z,3.95
2019-03-28T17:23:50.635Z,3.65
2019-03-28T17:28:54.924Z,3.10
2019-03-28T17:33:59.246Z,3.83
2019-03-28T17:39:06.213Z,3.37
2019-03-28T17:44:14.232Z,3.75
2019-03-28T17:49:17.558Z,3.62
2019-03-28T17:54:21.901Z,5.35
2019-03-28T17:59:27.333Z,3.72
2019-03-28T18:04:32.505Z,4.10
2019-03-28T18:09:37.790Z,4.30
2019-03-28T18:14:42.393Z,4.30
2019-03-28T18:19:46.811Z,4.95
2019-03-28T18:24:51.490Z,3.58
2019-03-28T18:29:55.787Z,3.47
2019-03-28T18:35:05.671Z,4.37
2019-03-28T18:40:09.186Z,4.47
2019-03-28T18:45:13.545Z,3.75
2019-03-28T18:50:17.857Z,4.35
2019-03-28T18:55:22.411Z,3.85
2019-03-28T19:00:27.373Z,3.67
2019-03-28T19:05:31.756Z,4.20
2019-03-28T19:10:36.169Z,4.17
2019-03-28T19:15:42.912Z,4.25
2019-03-28T19:20:47.697Z,5.60
2019-03-28T19:30:55.390Z,5.62
2019-03-28T19:36:01.454Z,5.67
2019-03-28T19:41:07.082Z,4.53
2019-03-28T19:46:11.501Z,4.78
2019-03-28T19:51:16.571Z,5.28
2019-03-28T19:56:21.554Z,10.90
2019-03-28T20:01:25.961Z,7.20
2019-03-28T20:06:30.818Z,9.90
2019-03-28T20:16:38.560Z,11.33
2019-03-28T20:21:42.917Z,8.30
2019-03-28T20:26:47.377Z,8.33
2019-03-28T20:31:52.287Z,4.87
2019-03-28T20:36:58.191Z,5.45
2019-03-28T20:42:02.827Z,4.67
2019-03-28T20:47:07.294Z,5.62
2019-03-28T20:52:12.253Z,5.50
2019-03-28T20:57:16.546Z,5.12
2019-03-28T21:02:21.126Z,5.03
2019-03-28T21:07:25.511Z,5.67
2019-03-28T21:12:29.945Z,4.95
2019-03-28T21:17:34.586Z,5.22
2019-03-28T21:22:39.035Z,5.55
2019-03-28T21:27:43.447Z,5.72
2019-03-28T21:32:55.185Z,6.42
2019-03-28T21:37:54.006Z,6.80
2019-03-28T21:42:58.671Z,7.47
2019-03-28T21:53:07.715Z,7.00
2019-03-28T21:58:12.247Z,6.10
2019-03-28T22:03:16.990Z,6.03
2019-03-28T22:08:21.620Z,6.30
2019-03-28T22:13:29.946Z,6.85
2019-03-28T22:18:34.702Z,6.67
2019-03-28T22:28:42.878Z,7.17
2019-03-28T22:33:47.587Z,6.05
2019-03-28T22:38:53.427Z,6.30
2019-03-28T22:43:58.804Z,6.55
2019-03-28T22:49:03.322Z,7.17
2019-03-28T22:54:07.648Z,7.87
2019-03-28T22:59:12.005Z,10.15
2019-03-28T23:04:16.359Z,8.53
2019-03-28T23:09:20.740Z,8.45
2019-03-28T23:14:25.393Z,8.93
2019-03-28T23:24:33.156Z,11.38
2019-03-28T23:29:38.170Z,8.33
2019-03-28T23:34:42.515Z,8.45
2019-03-28T23:39:47.159Z,7.95
2019-03-28T23:44:55.235Z,10.25
2019-03-28T23:49:59.797Z,8.50
2019-03-28T23:55:05.428Z,9.20
